Time;durP1;ratioP1;P1;durP2;ratioP2;P2;SDS_P1;SDS_P2;PMS_P1;PMS_P2;Temp;Humidity;BMP_temperature;BMP_pressure;BME280_temperature;BME280_humidity;BME280_pressure;Samples;Min_cycle;Max_cycle;Signal;HPM_P1;HPM_P2
2022/04/11 00:02:00;;;;;;;2.27;2.17;;;4.20;99.90;;;;;;5033667;28;20274;-65
2022/04/11 00:04:27;;;;;;;2.70;2.50;;;4.30;99.90;;;;;;5033799;28;20195;-69
2022/04/11 00:06:53;;;;;;;3.50;2.57;;;4.20;99.90;;;;;;5033723;28;20405;-66
2022/04/11 00:09:19;;;;;;;2.30;1.80;;;4.30;99.90;;;;;;5032905;28;20438;-69
2022/04/11 00:11:45;;;;;;;2.10;2.00;;;4.30;99.90;;;;;;5033729;28;21060;-69
2022/04/11 00:14:10;;;;;;;1.97;1.87;;;4.30;99.90;;;;;;5033791;28;20430;-69
2022/04/11 00:16:36;;;;;;;5.47;1.97;;;4.30;99.90;;;;;;5033632;28;20195;-69
2022/04/11 00:19:02;;;;;;;4.33;2.00;;;4.20;99.90;;;;;;5032788;28;20486;-67
2022/04/11 00:21:28;;;;;;;2.37;2.27;;;4.30;99.90;;;;;;5032242;28;20246;-66
2022/04/11 00:23:53;;;;;;;7.33;3.10;;;4.40;99.90;;;;;;5032278;28;20415;-66
2022/04/11 00:26:19;;;;;;;2.77;2.57;;;4.30;99.90;;;;;;5033696;28;20173;-69
2022/04/11 00:28:45;;;;;;;2.40;2.20;;;4.30;99.90;;;;;;5033025;28;20174;-66
2022/04/11 00:31:10;;;;;;;2.57;2.47;;;4.30;99.90;;;;;;5033303;28;20176;-69
2022/04/11 00:33:36;;;;;;;4.10;2.60;;;4.40;99.90;;;;;;5032257;28;20234;-66
2022/04/11 00:36:01;;;;;;;4.23;2.07;;;4.40;99.90;;;;;;5033701;28;20166;-69
2022/04/11 00:38:27;;;;;;;4.70;2.30;;;4.40;99.90;;;;;;5033390;28;20175;-70
2022/04/11 00:40:53;;;;;;;2.10;2.00;;;4.30;99.90;;;;;;5032317;28;20168;-66
2022/04/11 00:43:31;;;;;;;2.70;2.43;;;4.20;99.90;;;;;;5033189;28;20189;-66
2022/04/11 00:45:57;;;;;;;2.50;2.30;;;4.20;99.90;;;;;;5033405;28;20509;-65
2022/04/11 00:48:23;;;;;;;2.70;2.50;;;4.20;99.90;;;;;;5033351;28;20412;-70
2022/04/11 00:50:50;;;;;;;2.57;2.37;;;4.30;99.90;;;;;;5032732;28;20218;-70
2022/04/11 00:53:16;;;;;;;2.80;2.47;;;4.20;99.90;;;;;;5033057;28;20603;-69
2022/04/11 00:55:42;;;;;;;8.30;2.87;;;4.20;99.90;;;;;;5033236;28;20396;-70
2022/04/11 00:58:08;;;;;;;1.97;1.77;;;4.10;99.90;;;;;;5033318;28;20633;-66
2022/04/11 01:00:35;;;;;;;2.83;2.57;;;4.20;99.90;;;;;;5032567;28;20417;-71
2022/04/11 01:03:01;;;;;;;2.30;2.20;;;4.20;99.90;;;;;;5033193;28;20568;-70
2022/04/11 01:05:26;;;;;;;2.50;2.40;;;4.20;99.90;;;;;;5032949;28;20494;-66
2022/04/11 01:07:52;;;;;;;2.70;2.37;;;4.30;99.90;;;;;;5033271;28;20220;-66
2022/04/11 01:10:18;;;;;;;2.33;2.23;;;4.20;99.90;;;;;;5032339;28;20193;-70
2022/04/11 01:12:43;;;;;;;2.60;2.50;;;4.20;99.90;;;;;;5032871;28;20764;-66
2022/04/11 01:15:09;;;;;;;2.30;2.20;;;4.10;99.90;;;;;;5031908;28;20170;-66
2022/04/11 01:17:37;;;;;;;2.47;2.27;;;4.00;99.90;;;;;;5032881;28;20168;-66
2022/04/11 01:20:11;;;;;;;2.03;1.93;;;4.00;99.90;;;;;;5032368;28;20402;-70
2022/04/11 01:22:37;;;;;;;2.10;2.00;;;4.00;99.90;;;;;;5032952;28;20429;-66
2022/04/11 01:25:03;;;;;;;5.93;2.20;;;4.00;99.90;;;;;;5033009;28;20407;-70
2022/04/11 01:27:31;;;;;;;2.37;2.17;;;3.90;99.90;;;;;;5033021;28;20484;-68
2022/04/11 01:29:56;;;;;;;1.80;1.70;;;3.90;99.90;;;;;;5032276;28;20892;-66
2022/04/11 01:32:22;;;;;;;7.33;2.57;;;3.90;99.90;;;;;;5032743;28;20454;-69
2022/04/11 01:34:48;;;;;;;2.30;2.20;;;4.00;99.90;;;;;;5033042;28;20256;-69
2022/04/11 01:37:13;;;;;;;4.63;2.03;;;3.90;99.90;;;;;;5032933;28;20231;-66
2022/04/11 01:39:39;;;;;;;2.03;1.80;;;4.00;99.90;;;;;;5032076;28;20164;-66
2022/04/11 01:42:04;;;;;;;2.17;1.80;;;4.00;99.90;;;;;;5032777;28;20207;-65
2022/04/11 01:44:30;;;;;;;2.77;1.63;;;4.00;99.90;;;;;;5032850;28;20176;-66
2022/04/11 01:46:56;;;;;;;2.87;2.67;;;4.00;99.90;;;;;;5032946;28;20164;-70
2022/04/11 01:49:21;;;;;;;2.10;1.90;;;3.90;99.90;;;;;;5032165;28;20204;-67
2022/04/11 01:51:47;;;;;;;1.80;1.70;;;3.90;99.90;;;;;;5032487;28;20240;-66
2022/04/11 01:54:12;;;;;;;4.30;2.40;;;3.90;99.90;;;;;;5036051;28;20246;-66
2022/04/11 01:56:38;;;;;;;3.43;2.03;;;4.00;99.90;;;;;;5036357;28;20165;-66
2022/04/11 01:59:04;;;;;;;2.13;2.03;;;4.10;99.90;;;;;;5035532;28;20212;-70
2022/04/11 02:01:29;;;;;;;4.10;2.27;;;4.10;99.90;;;;;;5035108;28;20246;-69
2022/04/11 02:03:55;;;;;;;5.37;2.70;;;4.00;99.90;;;;;;5036022;28;20166;-66
2022/04/11 02:06:21;;;;;;;3.07;2.57;;;4.00;99.90;;;;;;5036196;28;20170;-69
2022/04/11 02:08:46;;;;;;;2.10;2.00;;;4.10;99.90;;;;;;5035360;28;20560;-66
2022/04/11 02:11:12;;;;;;;2.53;2.33;;;4.10;99.90;;;;;;5035899;28;20161;-66
2022/04/11 02:13:37;;;;;;;2.53;2.17;;;4.10;99.90;;;;;;5035765;28;20197;-67
2022/04/11 02:16:03;;;;;;;2.57;2.47;;;4.00;99.90;;;;;;5034540;28;20171;-66
2022/04/11 02:18:29;;;;;;;4.03;2.60;;;4.00;99.90;;;;;;5035260;28;20170;-71
2022/04/11 02:20:55;;;;;;;2.97;2.40;;;4.00;99.90;;;;;;5035943;28;20403;-70
2022/04/11 02:23:22;;;;;;;3.40;3.20;;;4.00;99.90;;;;;;5035765;28;20189;-65
2022/04/11 02:25:48;;;;;;;3.03;2.73;;;4.00;99.90;;;;;;5035752;28;20173;-66
2022/04/11 02:28:14;;;;;;;3.23;3.03;;;4.00;99.90;;;;;;5035734;28;20415;-66
2022/04/11 02:30:39;;;;;;;2.60;2.50;;;4.00;99.90;;;;;;5035006;28;20253;-69
2022/04/11 02:33:05;;;;;;;3.00;2.80;;;4.00;99.90;;;;;;5035596;28;20229;-69
2022/04/11 02:35:31;;;;;;;2.63;2.43;;;3.90;99.90;;;;;;5035597;28;20209;-66
2022/04/11 02:37:57;;;;;;;2.80;2.60;;;3.90;99.90;;;;;;5035542;28;20178;-66
2022/04/11 02:40:23;;;;;;;7.63;3.13;;;3.80;99.90;;;;;;5034850;28;20401;-70
2022/04/11 02:42:48;;;;;;;2.80;2.60;;;3.80;99.90;;;;;;5035358;28;20544;-70
2022/04/11 02:45:15;;;;;;;6.50;2.47;;;3.70;99.90;;;;;;5034355;28;20477;-69
2022/04/11 02:47:42;;;;;;;2.90;2.70;;;3.70;99.90;;;;;;5035438;28;20164;-69
2022/04/11 02:50:08;;;;;;;3.07;2.77;;;3.70;99.90;;;;;;5034592;28;20493;-69
2022/04/11 02:52:34;;;;;;;2.97;2.50;;;3.70;99.90;;;;;;5035278;28;20486;-66
2022/04/11 02:55:00;;;;;;;2.67;2.57;;;3.70;99.90;;;;;;5035271;28;20994;-66
2022/04/11 02:57:26;;;;;;;3.00;2.30;;;3.70;99.90;;;;;;5035065;28;20248;-66
2022/04/11 02:59:53;;;;;;;2.40;2.20;;;3.60;99.90;;;;;;5034454;28;20437;-69
2022/04/11 03:02:19;;;;;;;2.60;2.50;;;3.60;99.90;;;;;;5034899;28;20410;-66
2022/04/11 03:04:45;;;;;;;4.60;2.87;;;3.60;99.90;;;;;;5033995;28;20399;-69
2022/04/11 03:07:11;;;;;;;2.90;2.23;;;3.60;99.90;;;;;;5035119;28;20168;-66
2022/04/11 03:09:37;;;;;;;2.90;2.70;;;3.60;99.90;;;;;;5034238;28;20422;-66
2022/04/11 03:12:04;;;;;;;6.50;3.33;;;3.60;99.90;;;;;;5034651;28;20465;-69
2022/04/11 03:14:30;;;;;;;2.30;2.20;;;3.60;99.90;;;;;;5034584;28;20194;-66
2022/04/11 03:16:56;;;;;;;3.03;2.77;;;3.60;99.90;;;;;;5035008;28;20415;-66
2022/04/11 03:19:22;;;;;;;2.80;2.53;;;3.60;99.90;;;;;;5034000;28;20403;-66
2022/04/11 03:21:47;;;;;;;2.87;2.67;;;3.60;99.90;;;;;;5034612;28;20941;-66
2022/04/11 03:24:13;;;;;;;2.97;2.80;;;3.60;99.90;;;;;;5034596;28;20235;-71
2022/04/11 03:26:39;;;;;;;2.80;2.60;;;3.60;99.90;;;;;;5034376;28;20173;-69
2022/04/11 03:29:04;;;;;;;5.40;3.10;;;3.60;99.90;;;;;;5034081;28;20169;-70
2022/04/11 03:31:30;;;;;;;5.00;2.60;;;3.60;99.90;;;;;;5034489;28;20223;-69
2022/04/11 03:33:55;;;;;;;3.23;2.83;;;3.60;99.90;;;;;;5034635;28;20169;-66
2022/04/11 03:36:22;;;;;;;2.70;2.50;;;3.50;99.90;;;;;;5034533;28;20516;-70
2022/04/11 03:38:48;;;;;;;4.10;2.80;;;3.50;99.90;;;;;;5033660;28;20218;-69
2022/04/11 03:41:14;;;;;;;2.97;2.77;;;3.50;99.90;;;;;;5034289;28;20947;-69
2022/04/11 03:43:43;;;;;;;2.97;2.77;;;3.50;99.90;;;;;;5034389;28;20399;-66
2022/04/11 03:46:08;;;;;;;3.00;2.80;;;3.40;99.90;;;;;;5034307;28;20918;-66
2022/04/11 03:48:34;;;;;;;3.20;3.00;;;3.40;99.90;;;;;;5033536;28;20402;-72
2022/04/11 03:51:00;;;;;;;3.17;3.03;;;3.40;99.90;;;;;;5034126;28;20168;-70
2022/04/11 03:53:26;;;;;;;3.30;2.83;;;3.40;99.90;;;;;;5033989;28;20249;-69
2022/04/11 03:55:51;;;;;;;3.67;2.50;;;3.40;99.90;;;;;;5033103;28;20878;-69
2022/04/11 03:58:17;;;;;;;4.30;2.87;;;3.40;99.90;;;;;;5034164;28;20643;-70
2022/04/11 04:00:43;;;;;;;2.80;2.60;;;3.40;99.90;;;;;;5032344;28;20171;-71
2022/04/11 04:03:10;;;;;;;3.37;3.10;;;3.30;99.90;;;;;;5033832;28;20297;-66
2022/04/11 04:05:40;;;;;;;2.87;2.67;;;3.30;99.90;;;;;;5033922;28;20170;-69
2022/04/11 04:08:07;;;;;;;3.00;2.47;;;3.30;99.90;;;;;;5033779;28;20915;-66
2022/04/11 04:10:32;;;;;;;5.93;2.77;;;3.30;99.90;;;;;;5033072;28;20446;-66
2022/04/11 04:12:59;;;;;;;3.00;2.70;;;3.30;99.90;;;;;;5033495;28;20458;-69
2022/04/11 04:15:25;;;;;;;5.00;3.10;;;3.30;99.90;;;;;;5033681;28;20167;-66
2022/04/11 04:17:55;;;;;;;3.20;3.00;;;3.30;99.90;;;;;;5033660;28;20578;-66
2022/04/11 04:20:21;;;;;;;3.27;3.07;;;3.30;99.90;;;;;;5033016;28;20167;-66
2022/04/11 04:22:46;;;;;;;2.83;2.63;;;3.30;99.90;;;;;;5033418;28;20434;-70
2022/04/11 04:25:12;;;;;;;2.77;2.57;;;3.40;99.90;;;;;;5033477;28;20441;-69
2022/04/11 04:27:38;;;;;;;3.17;2.80;;;3.40;99.90;;;;;;5033839;28;20177;-69
2022/04/11 04:30:05;;;;;;;5.60;2.63;;;3.50;99.90;;;;;;5031897;28;20203;-66
2022/04/11 04:32:31;;;;;;;3.60;3.40;;;3.60;99.90;;;;;;5033239;28;20243;-69
2022/04/11 04:34:56;;;;;;;4.80;2.80;;;3.60;99.90;;;;;;5033552;28;20431;-70
2022/04/11 04:37:22;;;;;;;5.13;3.80;;;3.70;99.90;;;;;;5033433;28;20165;-69
2022/04/11 04:39:48;;;;;;;6.23;4.73;;;3.70;99.90;;;;;;5032957;28;20179;-66
2022/04/11 04:42:21;;;;;;;5.10;4.27;;;3.80;99.90;;;;;;5033477;28;20192;-66
2022/04/11 04:44:46;;;;;;;3.00;2.80;;;3.90;99.90;;;;;;5033528;28;20162;-66
2022/04/11 04:47:12;;;;;;;3.53;3.33;;;3.90;99.90;;;;;;5033200;28;20463;-69
2022/04/11 04:49:37;;;;;;;2.93;2.73;;;3.90;99.90;;;;;;5032717;28;20648;-66
2022/04/11 04:52:04;;;;;;;6.13;3.50;;;3.90;99.90;;;;;;5033165;28;20202;-66
2022/04/11 04:54:29;;;;;;;3.83;3.30;;;3.90;99.90;;;;;;5033425;28;20163;-66
2022/04/11 04:56:55;;;;;;;3.73;3.13;;;4.00;99.90;;;;;;5033296;28;20404;-69
2022/04/11 04:59:21;;;;;;;4.60;3.90;;;4.00;99.90;;;;;;5032472;28;20257;-70
2022/04/11 05:01:46;;;;;;;5.10;4.37;;;4.00;99.90;;;;;;5033342;28;20548;-66
2022/04/11 05:04:12;;;;;;;8.20;4.07;;;4.10;99.90;;;;;;5033237;28;20167;-66
2022/04/11 05:06:37;;;;;;;4.40;4.00;;;4.10;99.90;;;;;;5032175;28;20701;-69
2022/04/11 05:09:03;;;;;;;3.80;3.40;;;4.10;99.90;;;;;;5032504;28;20320;-69
2022/04/11 05:11:29;;;;;;;3.67;3.37;;;4.10;99.90;;;;;;5032825;28;20198;-66
2022/04/11 05:13:54;;;;;;;3.13;2.83;;;4.10;99.90;;;;;;5033303;28;20177;-66
2022/04/11 05:16:20;;;;;;;4.63;4.23;;;4.10;99.90;;;;;;5033183;28;20181;-70
2022/04/11 05:18:46;;;;;;;3.97;3.67;;;4.10;99.90;;;;;;5032371;28;20167;-66
2022/04/11 05:21:12;;;;;;;5.00;3.13;;;4.10;99.90;;;;;;5032871;28;20170;-69
2022/04/11 05:23:37;;;;;;;3.67;3.33;;;4.10;99.90;;;;;;5032877;28;20410;-66
2022/04/11 05:26:05;;;;;;;4.93;3.70;;;4.10;99.90;;;;;;5032958;28;20176;-69
2022/04/11 05:28:32;;;;;;;4.93;3.50;;;4.00;99.90;;;;;;5034876;28;20249;-67
2022/04/11 05:30:58;;;;;;;5.33;3.03;;;4.10;99.90;;;;;;5036710;28;20400;-69
2022/04/11 05:33:24;;;;;;;3.23;3.03;;;4.10;99.90;;;;;;5036459;28;20456;-69
2022/04/11 05:35:50;;;;;;;10.33;4.10;;;4.10;99.90;;;;;;5036520;28;20404;-66
2022/04/11 05:38:16;;;;;;;6.33;3.20;;;4.20;99.90;;;;;;5036610;28;20169;-70
2022/04/11 05:40:42;;;;;;;3.67;3.37;;;4.30;99.90;;;;;;5034753;28;20406;-66
2022/04/11 05:43:08;;;;;;;4.03;3.67;;;4.30;99.90;;;;;;5036547;28;20899;-66
2022/04/11 05:45:35;;;;;;;3.30;3.10;;;4.30;99.90;;;;;;5036475;28;20406;-71
2022/04/11 05:48:01;;;;;;;3.80;3.50;;;4.40;99.90;;;;;;5036499;28;20165;-70
2022/04/11 05:50:27;;;;;;;4.90;3.73;;;4.30;99.90;;;;;;5035709;28;20402;-66
2022/04/11 05:52:53;;;;;;;4.30;3.70;;;4.30;99.90;;;;;;5036134;28;20450;-70
2022/04/11 05:55:18;;;;;;;7.53;3.00;;;4.30;99.90;;;;;;5036311;28;20173;-67
2022/04/11 05:57:44;;;;;;;7.70;4.00;;;4.30;99.90;;;;;;5036186;28;20173;-71
2022/04/11 06:00:11;;;;;;;3.57;3.37;;;4.40;99.90;;;;;;5035658;28;20166;-70
2022/04/11 06:02:37;;;;;;;5.27;3.10;;;4.40;99.90;;;;;;5036029;28;20228;-66
2022/04/11 06:05:02;;;;;;;7.70;3.27;;;4.50;99.90;;;;;;5036088;28;20437;-67
2022/04/11 06:07:32;;;;;;;3.73;3.30;;;4.50;99.90;;;;;;5036166;28;20582;-66
2022/04/11 06:09:59;;;;;;;3.77;3.47;;;4.50;99.90;;;;;;5035092;28;20226;-66
2022/04/11 06:12:25;;;;;;;4.40;4.00;;;4.50;99.90;;;;;;5035925;28;20457;-70
2022/04/11 06:14:53;;;;;;;4.93;3.40;;;4.40;99.90;;;;;;5036047;28;20420;-70
2022/04/11 06:17:23;;;;;;;4.03;3.73;;;4.40;1.00;;;;;;5035865;28;20441;-69
2022/04/11 06:19:50;;;;;;;4.43;3.93;;;4.50;1.00;;;;;;5035066;28;20395;-69
2022/04/11 06:22:17;;;;;;;3.73;3.17;;;4.50;1.00;;;;;;5035548;28;20436;-69
2022/04/11 06:24:43;;;;;;;3.70;3.40;;;4.70;1.00;;;;;;5035996;28;20893;-66
2022/04/11 06:27:08;;;;;;;3.40;3.10;;;4.80;1.00;;;;;;5035764;28;20405;-66
2022/04/11 06:29:34;;;;;;;6.50;3.23;;;4.80;1.00;;;;;;5035115;28;20406;-69
2022/04/11 06:32:04;;;;;;;3.10;2.90;;;4.90;1.00;;;;;;5035249;28;20226;-67
2022/04/11 06:34:33;;;;;;;3.23;3.00;;;5.00;1.00;;;;;;5035959;28;20163;-66
2022/04/11 06:36:59;;;;;;;3.50;2.90;;;5.10;1.00;;;;;;5035668;28;20390;-69
2022/04/11 06:39:25;;;;;;;3.50;3.30;;;5.10;1.00;;;;;;5034925;28;20969;-66
2022/04/11 06:41:50;;;;;;;4.60;3.23;;;5.10;1.00;;;;;;5035344;28;20193;-66
2022/04/11 06:44:16;;;;;;;7.27;3.20;;;5.20;1.00;;;;;;5035468;28;20203;-69
2022/04/11 06:46:42;;;;;;;3.40;2.93;;;5.30;1.00;;;;;;5035265;28;20593;-69
2022/04/11 06:49:07;;;;;;;3.47;3.20;;;5.30;1.00;;;;;;5034445;28;20190;-70
2022/04/11 06:51:33;;;;;;;3.07;2.87;;;5.50;1.00;;;;;;5035289;28;20192;-66
2022/04/11 06:53:59;;;;;;;5.07;3.20;;;5.60;1.00;;;;;;5035198;28;20172;-67
2022/04/11 06:56:25;;;;;;;4.17;2.57;;;5.70;1.00;;;;;;5035058;28;20406;-68
2022/04/11 06:58:50;;;;;;;3.23;2.97;;;5.80;1.00;;;;;;5034588;28;20164;-66
2022/04/11 07:01:16;;;;;;;3.20;3.00;;;5.90;1.00;;;;;;5035323;28;20605;-69
2022/04/11 07:03:42;;;;;;;4.00;2.40;;;5.90;1.00;;;;;;5035171;28;20167;-73
2022/04/11 07:06:08;;;;;;;3.27;3.00;;;5.90;99.90;;;;;;5034881;28;20187;-72
2022/04/11 07:08:34;;;;;;;8.97;4.70;;;5.90;99.90;;;;;;5034210;28;20164;-74
2022/04/11 07:11:00;;;;;;;8.30;3.10;;;6.10;99.90;;;;;;5034965;28;20409;-73
2022/04/11 07:13:26;;;;;;;3.00;2.57;;;6.20;99.90;;;;;;5034756;28;20335;-69
2022/04/11 07:15:52;;;;;;;2.70;2.50;;;6.20;99.90;;;;;;5034823;28;20902;-69
2022/04/11 07:18:19;;;;;;;3.30;2.57;;;6.10;99.90;;;;;;5034636;28;20387;-68
2022/04/11 07:20:45;;;;;;;3.20;3.00;;;6.10;99.90;;;;;;5034043;28;20171;-69
2022/04/11 07:23:11;;;;;;;4.23;2.70;;;6.10;99.90;;;;;;5034554;28;20422;-67
2022/04/11 07:25:37;;;;;;;3.27;2.97;;;6.10;99.90;;;;;;5034632;28;20414;-68
2022/04/11 07:28:03;;;;;;;3.43;2.73;;;6.20;99.90;;;;;;5034563;28;20222;-73
2022/04/11 07:30:29;;;;;;;3.43;2.90;;;6.20;99.90;;;;;;5032438;28;20476;-68
2022/04/11 07:32:54;;;;;;;2.67;2.47;;;6.40;99.90;;;;;;5034465;28;20461;-72
2022/04/11 07:35:20;;;;;;;2.70;2.50;;;6.50;99.90;;;;;;5034377;28;20203;-72
2022/04/11 07:37:46;;;;;;;3.50;3.30;;;6.50;99.90;;;;;;5034551;28;20168;-68
2022/04/11 07:40:12;;;;;;;4.33;3.03;;;6.50;99.90;;;;;;5033811;28;20167;-71
2022/04/11 07:42:37;;;;;;;3.53;2.73;;;6.50;99.90;;;;;;5034138;28;20192;-73
2022/04/11 07:45:03;;;;;;;4.37;2.63;;;6.50;99.90;;;;;;5034513;28;20476;-73
2022/04/11 07:47:29;;;;;;;3.90;2.50;;;6.60;99.90;;;;;;5034252;28;20258;-67
2022/04/11 07:49:55;;;;;;;2.13;1.97;;;6.60;99.90;;;;;;5033217;28;20823;-67
2022/04/11 07:52:21;;;;;;;2.83;2.63;;;6.60;99.90;;;;;;5033865;28;20245;-73
2022/04/11 07:54:47;;;;;;;3.77;2.23;;;6.70;99.90;;;;;;5034033;28;20632;-73
2022/04/11 07:57:13;;;;;;;5.57;2.57;;;6.70;99.90;;;;;;5032705;28;20429;-71
2022/04/11 07:59:39;;;;;;;4.03;2.43;;;6.60;99.90;;;;;;5033478;28;20161;-68
2022/04/11 08:02:05;;;;;;;5.90;2.63;;;6.70;99.90;;;;;;5033999;28;20520;-73
2022/04/11 08:04:31;;;;;;;4.20;2.20;;;6.70;99.90;;;;;;5032678;28;20171;-73
2022/04/11 08:06:57;;;;;;;3.83;2.10;;;6.90;99.90;;;;;;5033874;28;20160;-73
2022/04/11 08:09:22;;;;;;;4.60;2.47;;;7.00;99.90;;;;;;5033253;28;20476;-67
2022/04/11 08:11:48;;;;;;;3.83;2.47;;;7.00;99.90;;;;;;5033676;28;20191;-68
2022/04/11 08:14:14;;;;;;;6.03;2.60;;;7.00;99.90;;;;;;5032441;28;20282;-68
2022/04/11 08:16:39;;;;;;;2.77;2.57;;;7.20;99.90;;;;;;5033581;28;20394;-69
2022/04/11 08:19:05;;;;;;;2.00;1.90;;;7.30;99.90;;;;;;5032959;28;20226;-73
2022/04/11 08:21:31;;;;;;;3.60;1.90;;;7.50;99.90;;;;;;5033649;28;20192;-72
2022/04/11 08:23:56;;;;;;;3.53;2.20;;;7.40;99.90;;;;;;5033640;28;20643;-72
2022/04/11 08:26:22;;;;;;;2.10;1.90;;;7.40;99.90;;;;;;5033601;28;20206;-68
2022/04/11 08:28:47;;;;;;;4.63;1.83;;;7.40;99.90;;;;;;5032719;28;20171;-69
2022/04/11 08:31:13;;;;;;;9.03;2.00;;;7.30;99.90;;;;;;5033379;28;20175;-67
2022/04/11 08:33:39;;;;;;;2.63;1.80;;;7.30;91.60;;;;;;5033666;28;20553;-72
2022/04/11 08:36:04;;;;;;;2.70;2.13;;;7.40;74.90;;;;;;5033555;28;20406;-67
2022/04/11 08:38:30;;;;;;;2.00;1.90;;;7.40;79.20;;;;;;5032962;28;20164;-68
2022/04/11 08:40:57;;;;;;;1.90;1.73;;;7.30;51.40;;;;;;5033275;28;20163;-73
2022/04/11 08:43:26;;;;;;;2.33;1.90;;;7.40;44.80;;;;;;5033340;28;20211;-67
2022/04/11 08:45:57;;;;;;;3.20;2.13;;;7.50;21.00;;;;;;5033388;28;20551;-66
2022/04/11 08:48:24;;;;;;;2.30;2.10;;;7.50;1.00;;;;;;5033377;28;20998;-67
2022/04/11 08:50:50;;;;;;;2.07;1.83;;;7.50;1.00;;;;;;5032851;28;20406;-67
2022/04/11 08:53:21;;;;;;;2.13;1.90;;;7.50;1.00;;;;;;5033050;28;20450;-67
2022/04/11 08:55:50;;;;;;;2.17;1.60;;;7.50;1.00;;;;;;5033305;28;20406;-73
2022/04/11 08:58:16;;;;;;;2.00;1.77;;;7.60;1.00;;;;;;5033240;28;20399;-67
2022/04/11 09:00:42;;;;;;;1.70;1.60;;;7.70;1.00;;;;;;5032657;28;20442;-72
2022/04/11 09:03:08;;;;;;;4.80;1.93;;;7.90;1.00;;;;;;5035052;28;20426;-71
2022/04/11 09:05:34;;;;;;;2.53;2.00;;;8.10;1.00;;;;;;5037396;28;20168;-67
2022/04/11 09:08:00;;;;;;;2.60;1.90;;;8.00;1.00;;;;;;5037361;28;20173;-66
2022/04/11 09:10:28;;;;;;;3.37;2.00;;;7.80;1.00;;;;;;5036433;28;20525;-66
2022/04/11 09:12:56;;;;;;;2.50;2.07;;;7.80;1.00;;;;;;5036922;28;20442;-67
2022/04/11 09:15:25;;;;;;;2.27;2.00;;;7.80;1.00;;;;;;5036882;28;20914;-67
2022/04/11 09:17:53;;;;;;;2.57;1.77;;;7.90;1.00;;;;;;5035719;28;20761;-68
2022/04/11 09:20:24;;;;;;;1.97;1.87;;;8.10;1.00;;;;;;5036386;28;20764;-72
2022/04/11 09:22:50;;;;;;;2.40;2.00;;;8.20;1.00;;;;;;5036793;28;20432;-67
2022/04/11 09:25:18;;;;;;;2.07;1.90;;;8.40;1.00;;;;;;5036782;28;20433;-67
2022/04/11 09:27:46;;;;;;;2.43;2.10;;;8.60;1.00;;;;;;5036906;28;20506;-67
2022/04/11 09:30:20;;;;;;;1.70;1.60;;;9.00;1.00;;;;;;5036207;28;20488;-68
2022/04/11 09:32:58;;;;;;;6.33;2.00;;;9.40;1.00;;;;;;5036662;28;20929;-72
2022/04/11 09:35:51;;;;;;;4.50;1.60;;;9.60;1.00;;;;;;5036472;28;20404;-71
2022/04/11 09:38:22;;;;;;;1.57;1.47;;;9.30;99.90;;;;;;5037317;28;20523;-72
2022/04/11 09:40:56;;;;;;;5.27;1.80;;;8.80;99.90;;;;;;5036015;28;20479;-67
2022/04/11 09:43:26;;;;;;;2.07;1.60;;;8.50;99.90;;;;;;5036566;28;20424;-71
2022/04/11 09:45:52;;;;;;;1.80;1.70;;;8.30;99.90;;;;;;5036601;28;20406;-67
2022/04/11 09:48:24;;;;;;;1.90;1.80;;;8.30;99.90;;;;;;5036587;28;20398;-72
2022/04/11 09:50:51;;;;;;;2.57;1.50;;;9.00;99.90;;;;;;5035971;28;20718;-67
2022/04/11 09:53:35;;;;;;;1.90;1.80;;;10.00;99.90;;;;;;5036315;28;20461;-71
2022/04/11 09:56:04;;;;;;;2.03;1.80;;;11.00;99.90;;;;;;5036318;28;20409;-72
2022/04/11 09:58:32;;;;;;;2.93;1.83;;;11.70;99.90;;;;;;5035735;28;20396;-74
2022/04/11 10:01:00;;;;;;;1.30;1.20;;;12.30;99.90;;;;;;5036349;28;20366;-72
2022/04/11 10:03:27;;;;;;;2.00;1.67;;;12.70;99.90;;;;;;5036149;28;20404;-67
2022/04/11 10:05:54;;;;;;;1.77;1.67;;;13.10;99.90;;;;;;5036175;28;20399;-72
2022/04/11 10:08:24;;;;;;;2.67;1.43;;;13.30;99.90;;;;;;5036017;28;20482;-67
2022/04/11 10:10:51;;;;;;;6.67;1.60;;;13.10;99.90;;;;;;5035486;28;20496;-67
2022/04/11 10:13:17;;;;;;;2.07;1.33;;;12.80;99.90;;;;;;5034229;28;20476;-67
2022/04/11 10:15:48;;;;;;;2.33;1.20;;;12.60;99.90;;;;;;5035914;28;20404;-69
2022/04/11 10:18:21;;;;;;;1.97;1.57;;;11.80;99.90;;;;;;5035965;28;20373;-72
2022/04/11 10:20:50;;;;;;;1.87;1.37;;;11.90;99.90;;;;;;5035402;28;20704;-72
2022/04/11 10:23:53;;;;;;;1.57;1.40;;;12.70;99.90;;;;;;5035727;28;20405;-66
2022/04/11 10:26:19;;;;;;;1.60;1.50;;;13.50;99.90;;;;;;5039393;28;20401;-72
2022/04/11 10:28:52;;;;;;;3.20;1.60;;;14.40;99.90;;;;;;5035140;28;20986;-72
2022/04/11 10:31:18;;;;;;;7.87;1.63;;;13.70;99.90;;;;;;5035579;28;20385;-67
2022/04/11 10:33:49;;;;;;;2.40;1.40;;;12.90;99.90;;;;;;5035435;28;20483;-72
2022/04/11 10:36:38;;;;;;;8.03;1.67;;;12.30;99.90;;;;;;5035535;28;20399;-70
2022/04/11 10:39:12;;;;;;;1.30;1.20;;;11.30;99.90;;;;;;5034975;28;20848;-66
2022/04/11 10:41:56;;;;;;;1.60;1.50;;;10.60;99.90;;;;;;5035379;28;20446;-67
2022/04/11 10:44:33;;;;;;;2.07;1.60;;;9.90;99.90;;;;;;5035578;28;20373;-71
2022/04/11 10:47:07;;;;;;;2.50;1.53;;;9.60;99.90;;;;;;5035595;28;20424;-72
2022/04/11 10:49:48;;;;;;;2.60;1.97;;;10.10;99.90;;;;;;5034558;28;20726;-72
2022/04/11 10:52:35;;;;;;;3.20;1.50;;;11.30;99.90;;;;;;5035192;28;20504;-72
2022/04/11 10:55:17;;;;;;;1.70;1.60;;;12.20;99.90;;;;;;5035388;28;20372;-72
2022/04/11 10:57:43;;;;;;;2.37;1.50;;;12.20;99.90;;;;;;5035226;28;20477;-72
2022/04/11 11:00:09;;;;;;;1.43;1.33;;;13.20;99.90;;;;;;5034403;28;20909;-72
2022/04/11 11:02:57;;;;;;;1.30;1.20;;;14.20;99.90;;;;;;5035100;28;20191;-72
2022/04/11 11:05:36;;;;;;;1.70;1.60;;;15.30;99.90;;;;;;5035042;28;20442;-72
2022/04/11 11:08:07;;;;;;;3.27;1.57;;;16.20;99.90;;;;;;5034935;28;20894;-72
2022/04/11 11:10:54;;;;;;;1.40;1.30;;;15.60;99.90;;;;;;5034115;28;20957;-71
2022/04/11 11:13:38;;;;;;;1.83;1.43;;;14.90;99.90;;;;;;5034732;28;20453;-67
2022/04/11 11:16:10;;;;;;;1.20;1.10;;;14.90;99.90;;;;;;5034839;28;20433;-73
2022/04/11 11:18:51;;;;;;;1.97;1.50;;;15.30;99.90;;;;;;5034131;28;20403;-73
2022/04/11 11:21:32;;;;;;;3.83;1.60;;;15.10;99.90;;;;;;5034717;28;20426;-66
2022/04/11 11:24:04;;;;;;;1.20;1.10;;;13.80;99.90;;;;;;5034653;28;20406;-67
2022/04/11 11:26:46;;;;;;;1.50;1.40;;;13.00;99.90;;;;;;5033676;28;20373;-73
2022/04/11 11:29:17;;;;;;;1.73;1.60;;;13.20;99.90;;;;;;5033982;28;20382;-71
2022/04/11 11:31:45;;;;;;;3.10;1.67;;;14.20;99.90;;;;;;5034381;28;20400;-66
2022/04/11 11:34:12;;;;;;;2.80;1.40;;;14.80;99.90;;;;;;5034339;28;20377;-67
2022/04/11 11:36:39;;;;;;;1.07;0.97;;;15.20;99.90;;;;;;5033366;28;20588;-71
2022/04/11 11:39:12;;;;;;;1.40;1.30;;;15.80;99.90;;;;;;5033852;28;20399;-66
2022/04/11 11:41:42;;;;;;;4.50;1.23;;;17.00;99.90;;;;;;5034470;28;20421;-71
2022/04/11 11:44:09;;;;;;;4.27;1.40;;;17.80;99.90;;;;;;5034330;28;20398;-73
2022/04/11 11:46:51;;;;;;;2.07;0.93;;;17.70;99.90;;;;;;5034069;28;20878;-72
2022/04/11 11:49:18;;;;;;;1.00;0.80;;;16.60;99.90;;;;;;5033744;28;20398;-66
2022/04/11 11:51:44;;;;;;;2.03;0.97;;;16.50;99.90;;;;;;5034238;28;20430;-66
2022/04/11 11:54:10;;;;;;;1.37;1.00;;;17.00;99.90;;;;;;5034205;28;20398;-66
2022/04/11 11:56:46;;;;;;;4.63;1.10;;;17.50;99.90;;;;;;5034136;28;20476;-73
2022/04/11 11:59:14;;;;;;;1.60;1.07;;;17.60;99.90;;;;;;5033493;28;20163;-67
2022/04/11 12:04:18;;;;;;;1.37;1.20;;;16.80;99.90;;;;;;5034092;28;20508;-72
2022/04/11 12:04:34;;;;;;;1.30;1.20;;;15.40;99.90;;;;;;5033812;28;20924;-67
2022/04/11 12:07:00;;;;;;;1.80;1.13;;;14.00;99.90;;;;;;5033996;28;20427;-71
2022/04/11 12:09:34;;;;;;;5.03;1.63;;;13.10;99.90;;;;;;5033184;28;20926;-66
2022/04/11 12:12:00;;;;;;;1.43;1.33;;;12.40;99.90;;;;;;5033623;28;20237;-66
2022/04/11 12:14:25;;;;;;;1.77;1.67;;;12.10;99.90;;;;;;5033837;28;20410;-70
2022/04/11 12:17:00;;;;;;;1.83;1.60;;;11.70;99.90;;;;;;5033742;28;20195;-66
2022/04/11 12:19:34;;;;;;;1.67;1.57;;;11.70;99.90;;;;;;5033124;28;20167;-72
2022/04/11 12:22:14;;;;;;;2.43;1.17;;;12.00;99.90;;;;;;5033485;28;20435;-66
2022/04/11 12:24:41;;;;;;;2.50;1.50;;;12.50;99.90;;;;;;5033577;28;20373;-72
2022/04/11 12:27:13;;;;;;;1.53;1.43;;;12.80;99.90;;;;;;5033607;28;20401;-72
2022/04/11 12:29:42;;;;;;;3.67;1.73;;;12.90;99.90;;;;;;5032985;28;20377;-66
2022/04/11 12:32:12;;;;;;;1.40;1.23;;;12.70;99.90;;;;;;5033468;28;20836;-70
2022/04/11 12:34:42;;;;;;;1.70;1.10;;;13.00;99.90;;;;;;5033484;28;20386;-67
2022/04/11 12:37:10;;;;;;;1.43;1.20;;;13.40;99.90;;;;;;5033247;28;20422;-66
2022/04/11 12:39:52;;;;;;;1.60;1.30;;;13.70;99.90;;;;;;5033059;28;20402;-66
2022/04/11 12:42:20;;;;;;;1.50;1.40;;;13.90;99.90;;;;;;5033318;28;20437;-65
2022/04/11 12:44:46;;;;;;;3.30;1.20;;;14.10;99.90;;;;;;5033296;28;20399;-72
2022/04/11 12:47:12;;;;;;;6.60;1.30;;;13.90;99.90;;;;;;5033307;28;20548;-66
2022/04/11 12:49:48;;;;;;;2.23;1.20;;;13.90;99.90;;;;;;5032783;28;20402;-66
2022/04/11 12:52:18;;;;;;;1.30;1.20;;;14.30;99.90;;;;;;5033270;28;20527;-66
2022/04/11 12:54:47;;;;;;;2.13;1.30;;;15.90;99.90;;;;;;5033411;28;20394;-67
2022/04/11 12:57:26;;;;;;;1.90;1.50;;;17.30;99.90;;;;;;5033296;28;20461;-69
2022/04/11 12:59:53;;;;;;;2.50;0.97;;;18.50;99.90;;;;;;5032616;28;20394;-67